createdAt,value
2018-10-05T00:04:43.309Z,7.27
2018-10-05T00:09:40.059Z,8.93
2018-10-05T00:14:36.748Z,8.60
2018-10-05T00:19:33.504Z,8.37
2018-10-05T00:24:30.247Z,8.17
2018-10-05T00:29:26.974Z,7.33
2018-10-05T00:34:23.762Z,7.80
2018-10-05T00:39:20.488Z,7.53
2018-10-05T00:44:17.227Z,7.80
2018-10-05T00:49:13.972Z,7.83
2018-10-05T00:54:10.653Z,8.20
2018-10-05T00:59:07.396Z,7.87
2018-10-05T01:04:04.235Z,7.87
2018-10-05T01:09:00.940Z,7.80
2018-10-05T01:13:57.685Z,7.67
2018-10-05T01:18:54.630Z,7.43
2018-10-05T01:23:51.379Z,6.90
2018-10-05T01:28:48.143Z,8.30
2018-10-05T01:33:44.976Z,9.17
2018-10-05T01:38:41.743Z,8.10
2018-10-05T01:43:38.477Z,7.50
2018-10-05T01:48:35.264Z,7.27
2018-10-05T01:53:32.098Z,7.60
2018-10-05T01:58:28.776Z,7.63
2018-10-05T02:03:25.449Z,7.47
2018-10-05T02:08:22.190Z,7.60
2018-10-05T02:13:18.917Z,7.50
2018-10-05T02:18:15.764Z,7.43
2018-10-05T02:23:12.499Z,6.93
2018-10-05T02:28:09.214Z,7.30
2018-10-05T02:33:06.162Z,7.20
2018-10-05T02:38:02.876Z,7.17
2018-10-05T02:42:59.587Z,7.43
2018-10-05T02:47:56.329Z,6.97
2018-10-05T02:52:53.254Z,7.93
2018-10-05T02:57:49.934Z,6.57
2018-10-05T03:02:46.985Z,7.43
2018-10-05T03:07:43.701Z,7.13
2018-10-05T03:12:40.396Z,7.23
2018-10-05T03:17:37.105Z,7.37
2018-10-05T03:22:33.810Z,6.97
2018-10-05T03:27:30.524Z,6.83
2018-10-05T03:32:27.234Z,7.23
2018-10-05T03:37:24.060Z,7.53
2018-10-05T03:42:20.784Z,8.17
2018-10-05T03:47:17.500Z,7.90
2018-10-05T03:52:14.249Z,7.43
2018-10-05T03:57:10.957Z,7.67
2018-10-05T04:02:07.958Z,6.93
2018-10-05T04:07:04.692Z,7.73
2018-10-05T04:12:01.433Z,7.43
2018-10-05T04:16:58.229Z,6.80
2018-10-05T04:21:54.942Z,6.93
2018-10-05T04:26:51.653Z,6.90
2018-10-05T04:31:48.392Z,7.43
2018-10-05T04:36:45.454Z,7.37
2018-10-05T04:41:42.157Z,6.87
2018-10-05T04:46:38.931Z,7.63
2018-10-05T04:51:35.644Z,7.70
2018-10-05T04:56:32.624Z,7.70
2018-10-05T05:01:29.341Z,7.33
2018-10-05T05:06:26.125Z,8.33
2018-10-05T05:11:22.877Z,7.63
2018-10-05T05:16:19.619Z,8.00
2018-10-05T05:21:16.499Z,6.80
2018-10-05T05:26:13.257Z,7.00
2018-10-05T05:31:09.980Z,7.83
2018-10-05T05:36:07.152Z,7.40
2018-10-05T05:41:03.932Z,7.33
2018-10-05T05:46:00.914Z,6.77
2018-10-05T05:50:58.057Z,7.33
2018-10-05T05:55:54.777Z,7.27
2018-10-05T06:00:51.571Z,6.80
2018-10-05T06:05:48.292Z,6.47
2018-10-05T06:10:45.016Z,6.60
2018-10-05T06:15:41.769Z,7.07
2018-10-05T06:20:38.473Z,7.40
2018-10-05T06:25:35.185Z,7.73
2018-10-05T06:30:32.219Z,8.40
2018-10-05T06:35:28.947Z,8.60
2018-10-05T06:40:25.619Z,9.43
2018-10-05T06:45:22.358Z,8.93
2018-10-05T06:50:19.144Z,10.03
2018-10-05T06:55:15.812Z,9.33
2018-10-05T07:00:12.502Z,8.77
2018-10-05T07:05:09.225Z,8.93
2018-10-05T07:10:05.966Z,10.20
2018-10-05T07:15:02.681Z,9.30
2018-10-05T07:19:59.393Z,9.53
2018-10-05T07:24:56.126Z,8.87
2018-10-05T07:29:52.807Z,10.03
2018-10-05T07:34:49.797Z,9.40
2018-10-05T07:39:46.524Z,9.10
2018-10-05T07:44:43.210Z,10.00
2018-10-05T07:49:39.874Z,9.13
2018-10-05T07:54:36.594Z,9.07
2018-10-05T07:59:33.323Z,8.87
2018-10-05T08:04:29.982Z,8.17
2018-10-05T08:09:26.752Z,7.93
2018-10-05T08:14:23.456Z,7.50
2018-10-05T08:19:20.195Z,5.45
2018-10-05T08:24:17.011Z,5.55
2018-10-05T08:29:13.723Z,6.05
2018-10-05T08:34:10.513Z,4.45
2018-10-05T08:39:08.165Z,5.08
2018-10-05T08:44:04.851Z,4.60
2018-10-05T08:49:01.936Z,4.78
2018-10-05T08:53:58.677Z,4.40
2018-10-05T08:58:55.425Z,4.67
2018-10-05T09:03:52.315Z,4.40
2018-10-05T09:08:49.210Z,4.25
2018-10-05T09:13:45.968Z,4.58
2018-10-05T09:18:42.638Z,4.10
2018-10-05T09:23:39.406Z,3.83
2018-10-05T09:28:36.207Z,3.85
2018-10-05T09:33:32.983Z,3.87
2018-10-05T09:38:29.761Z,3.60
2018-10-05T09:43:26.517Z,3.85
2018-10-05T09:48:23.261Z,3.98
2018-10-05T09:53:20.061Z,4.17
2018-10-05T09:58:17.081Z,3.25
2018-10-05T10:03:19.377Z,3.50
2018-10-05T10:08:16.177Z,3.22
2018-10-05T10:13:12.887Z,3.08
2018-10-05T10:18:09.629Z,3.37
2018-10-05T10:23:06.337Z,2.72
2018-10-05T10:28:03.344Z,2.87
2018-10-05T10:33:00.243Z,2.85
2018-10-05T10:37:56.919Z,3.45
2018-10-05T10:42:53.663Z,2.72
2018-10-05T10:47:50.384Z,2.90
2018-10-05T10:52:47.273Z,2.60
2018-10-05T10:57:43.942Z,2.60
2018-10-05T11:02:40.620Z,2.83
2018-10-05T11:07:37.385Z,2.70
2018-10-05T11:12:34.066Z,2.85
2018-10-05T11:17:30.828Z,2.40
2018-10-05T11:22:27.634Z,2.75
2018-10-05T11:27:24.338Z,2.25
2018-10-05T11:32:21.049Z,2.58
2018-10-05T11:37:17.800Z,2.60
2018-10-05T11:42:14.481Z,2.40
2018-10-05T11:47:11.274Z,2.37
2018-10-05T11:52:08.038Z,2.70
2018-10-05T11:57:04.942Z,2.87
2018-10-05T12:02:01.868Z,2.72
2018-10-05T12:06:58.653Z,2.60
2018-10-05T12:11:55.389Z,2.45
2018-10-05T12:16:52.206Z,2.30
2018-10-05T12:21:48.948Z,2.02
2018-10-05T12:26:45.852Z,2.60
2018-10-05T12:31:42.515Z,2.05
2018-10-05T12:36:39.171Z,2.17
2018-10-05T12:41:36.410Z,2.22
2018-10-05T12:46:33.124Z,2.22
2018-10-05T12:51:29.908Z,2.30
2018-10-05T12:56:26.600Z,2.40
2018-10-05T13:01:23.264Z,2.17
2018-10-05T13:06:19.997Z,1.87
2018-10-05T13:11:16.747Z,2.27
2018-10-05T13:16:13.479Z,1.80
2018-10-05T13:21:10.287Z,2.10
2018-10-05T13:26:07.534Z,1.87
2018-10-05T13:31:04.549Z,2.20
2018-10-05T13:36:01.900Z,2.05
2018-10-05T13:40:58.907Z,2.33
2018-10-05T13:45:55.612Z,2.40
2018-10-05T13:50:52.288Z,2.20
2018-10-05T13:55:48.951Z,2.20
2018-10-05T14:00:45.731Z,1.80
2018-10-05T14:05:42.457Z,2.12
2018-10-05T14:10:39.381Z,2.20
2018-10-05T14:15:35.988Z,2.25
2018-10-05T14:20:32.891Z,2.10
2018-10-05T14:25:29.550Z,2.67
2018-10-05T14:30:26.240Z,2.40
2018-10-05T14:35:23.018Z,2.25
2018-10-05T14:40:19.816Z,2.42
2018-10-05T14:45:16.558Z,2.70
2018-10-05T14:50:13.368Z,2.62
2018-10-05T14:55:10.124Z,1.98
2018-10-05T15:00:06.904Z,2.50
2018-10-05T15:05:03.813Z,2.10
2018-10-05T15:10:01.410Z,2.50
2018-10-05T15:14:58.580Z,2.33
2018-10-05T15:19:55.347Z,2.62
2018-10-05T15:24:52.045Z,2.70
2018-10-05T15:29:48.956Z,2.87
2018-10-05T15:34:45.758Z,2.35
2018-10-05T15:39:42.572Z,2.52
2018-10-05T15:44:39.327Z,2.80
2018-10-05T15:49:36.689Z,2.58
2018-10-05T15:54:33.430Z,2.50
2018-10-05T15:59:31.049Z,2.20
2018-10-05T16:04:28.330Z,2.98
2018-10-05T16:09:25.233Z,2.70
2018-10-05T16:14:21.929Z,2.62
2018-10-05T16:19:18.760Z,2.70
2018-10-05T16:24:19.432Z,2.42
2018-10-05T16:29:16.571Z,2.70
2018-10-05T16:34:13.449Z,2.87
2018-10-05T16:39:11.245Z,2.90
2018-10-05T16:44:08.143Z,2.65
2018-10-05T16:49:05.564Z,2.45
2018-10-05T16:54:02.556Z,3.12
2018-10-05T16:58:59.314Z,3.57
2018-10-05T17:03:56.298Z,2.83
2018-10-05T17:08:59.227Z,2.87
2018-10-05T17:13:56.124Z,4.00
2018-10-05T17:18:52.898Z,3.30
2018-10-05T17:23:49.615Z,3.10
2018-10-05T17:28:46.526Z,3.47
2018-10-05T17:33:43.263Z,3.63
2018-10-05T17:38:40.118Z,3.67
2018-10-05T17:43:36.944Z,2.87
2018-10-05T17:48:33.700Z,3.37
2018-10-05T17:53:30.450Z,3.37
2018-10-05T17:58:27.199Z,3.50
2018-10-05T18:03:23.939Z,3.33
2018-10-05T18:08:20.747Z,3.37
2018-10-05T18:13:17.515Z,3.57
2018-10-05T18:18:14.230Z,3.17
2018-10-05T18:23:15.342Z,3.40
2018-10-05T18:28:12.021Z,3.67
2018-10-05T18:33:08.838Z,3.83
2018-10-05T18:38:05.848Z,3.70
2018-10-05T18:43:02.535Z,3.63
2018-10-05T18:47:59.461Z,3.67
2018-10-05T18:52:56.252Z,3.40
2018-10-05T18:57:53.037Z,4.20
2018-10-05T19:02:49.855Z,3.80
2018-10-05T19:07:50.493Z,3.70
2018-10-05T19:12:47.284Z,4.57
2018-10-05T19:17:44.096Z,4.30
2018-10-05T19:22:41.162Z,4.43
2018-10-05T19:27:37.918Z,4.80
2018-10-05T19:32:34.752Z,5.20
2018-10-05T19:37:31.834Z,5.77
2018-10-05T19:42:28.578Z,4.20
2018-10-05T19:47:25.292Z,5.10
2018-10-05T19:52:22.118Z,4.87
2018-10-05T19:57:18.885Z,5.63
2018-10-05T20:02:15.615Z,5.20
2018-10-05T20:07:12.383Z,5.30
2018-10-05T20:12:09.136Z,5.70
2018-10-05T20:17:05.909Z,5.50
2018-10-05T20:22:02.871Z,4.77
2018-10-05T20:26:59.624Z,5.20
2018-10-05T20:31:56.316Z,5.50
2018-10-05T20:36:53.278Z,5.83
2018-10-05T20:41:49.853Z,6.03
2018-10-05T20:46:46.602Z,6.23
2018-10-05T20:51:43.320Z,6.00
2018-10-05T20:56:40.008Z,6.37
2018-10-05T21:01:36.831Z,5.97
2018-10-05T21:06:33.548Z,5.67
2018-10-05T21:11:30.264Z,5.00
2018-10-05T21:16:26.985Z,5.30
2018-10-05T21:21:23.718Z,4.80
2018-10-05T21:26:20.474Z,4.53
2018-10-05T21:31:17.594Z,4.30
2018-10-05T21:36:14.313Z,5.03
2018-10-05T21:41:10.977Z,5.63
2018-10-05T21:46:07.727Z,5.50
2018-10-05T21:51:04.609Z,5.73
2018-10-05T21:56:01.508Z,5.70
2018-10-05T22:00:58.286Z,5.73
2018-10-05T22:05:55.057Z,5.13
2018-10-05T22:10:51.788Z,5.83
2018-10-05T22:15:48.549Z,5.33
2018-10-05T22:20:45.329Z,5.03
2018-10-05T22:25:42.053Z,6.10
2018-10-05T22:30:38.730Z,5.97
2018-10-05T22:35:35.497Z,6.23
2018-10-05T22:40:32.176Z,5.23
2018-10-05T22:45:28.905Z,6.13
2018-10-05T22:50:25.618Z,5.37
2018-10-05T22:55:22.346Z,6.33
2018-10-05T23:00:19.059Z,6.27
2018-10-05T23:05:15.827Z,5.73
2018-10-05T23:10:12.681Z,6.03
2018-10-05T23:15:09.401Z,5.90
2018-10-05T23:20:06.287Z,5.67
2018-10-05T23:25:03.164Z,6.13
2018-10-05T23:29:59.880Z,6.50
2018-10-05T23:34:56.651Z,6.27
2018-10-05T23:39:53.355Z,6.00
2018-10-05T23:44:50.104Z,6.80
2018-10-05T23:49:47.025Z,5.70
2018-10-05T23:54:43.797Z,6.10
2018-10-05T23:59:40.601Z,5.93
